MST,Max TemperatureF,Mean TemperatureF,Min TemperatureF,Max Dew PointF,MeanDew PointF,Min DewpointF,Max Humidity, Mean Humidity, Min Humidity, Max Sea Level PressureIn, Mean Sea Level PressureIn, Min Sea Level PressureIn, Max VisibilityMiles, Mean VisibilityMiles, Min VisibilityMiles, Max Wind SpeedMPH, Mean Wind SpeedMPH, Max Gust SpeedMPH,PrecipitationIn, CloudCover, Events, WindDirDegrees
2012-12-1,73,60,46,43,38,36,66,52,29,30.14,30.08,30.04,20,12,10,8,5,,0.00,0,,109
2012-12-2,73,60,46,39,36,34,62,49,27,30.11,30.06,30.02,20,12,10,8,5,,0.00,0,,114
2012-12-3,73,60,48,43,38,36,66,50,29,30.17,30.10,30.04,20,12,10,10,6,,0.00,1,,108
2012-12-4,78,63,48,43,38,36,67,50,23,30.27,30.17,30.14,20,12,5,8,5,,0.00,2,,115
2012-12-5,78,63,48,37,33,28,58,42,16,30.14,30.06,29.98,20,12,10,7,4,,0.00,1,,115
2012-12-6,73,60,46,34,32,30,53,41,23,29.97,29.91,29.84,20,12,10,9,5,,0.00,2,,116
2012-12-7,73,60,46,39,34,32,62,47,27,29.96,29.91,29.88,20,12,10,8,5,,0.00,0,,119
2012-12-8,71,58,44,39,34,28,71,50,22,29.99,29.93,29.90,20,12,10,9,6,,0.00,1,,120
2012-12-9,68,54,41,34,26,10,65,42,18,30.12,30.01,29.96,20,12,10,10,6,,0.00,1,,94
2012-12-10,62,50,37,18,8,0,45,22,8,30.17,30.10,30.03,20,12,10,9,3,,0.00,0,,77
2012-12-11,64,48,33,21,13,7,42,28,14,30.12,30.05,30.00,20,11,10,8,5,,0.00,1,,114
2012-12-12,73,55,37,19,14,10,41,27,10,30.05,29.97,29.90,20,12,10,10,6,,0.00,0,,119
2012-12-13,69,55,41,54,33,18,88,48,21,29.95,29.85,29.72,20,12,10,17,9,22,0.11,3,Rain-Thunderstorm,136
2012-12-14,57,54,50,52,46,39,88,77,51,30.04,29.89,29.68,20,12,7,21,11,25,0.16,4,Rain-Thunderstorm,158
2012-12-15,55,52,48,52,47,45,94,85,72,30.04,30.00,29.94,20,11,2,12,6,,0.25,7,Rain,171
2012-12-16,55,48,42,46,42,37,100,82,51,30.20,30.12,30.04,20,9,2,9,2,,0.00,3,,43
2012-12-17,57,49,41,43,39,34,93,77,41,30.21,30.12,30.01,20,12,10,7,3,,0.00,0,,120
2012-12-18,60,50,41,48,42,37,87,76,48,30.00,29.87,29.75,20,12,7,17,4,22,0.00,4,Rain,127
2012-12-19,53,47,41,50,35,27,94,66,38,30.35,30.09,29.78,20,11,5,21,10,30,0.13,3,Rain,244
2012-12-20,60,46,32,36,28,19,87,58,20,30.36,30.26,30.15,20,12,10,7,2,,0.00,1,,88
2012-12-21,66,52,37,37,29,16,71,51,14,30.16,30.12,30.05,20,12,10,7,2,,0.00,1,,106
2012-12-22,68,56,44,41,34,27,76,53,23,30.13,30.09,30.05,20,12,10,7,4,,0.00,1,,117
2012-12-23,62,50,39,41,36,34,87,69,34,30.17,30.10,30.04,20,12,10,7,3,,0.00,1,,113
2012-12-24,60,50,41,41,38,36,81,69,42,30.07,30.00,29.90,20,12,10,10,5,,0.00,1,,127
2012-12-25,53,47,41,37,33,25,81,63,33,30.15,30.04,29.98,20,12,10,8,4,,0.00,2,,311
2012-12-26,57,47,37,36,31,19,81,61,23,30.03,29.94,29.85,20,12,10,7,3,,0.00,2,,111
2012-12-27,53,44,35,34,31,27,87,69,35,30.06,29.95,29.88,20,12,10,8,6,,0.00,2,,115
2012-12-28,55,44,33,36,32,28,93,71,36,30.20,30.12,30.06,20,12,10,7,5,,0.00,0,,90
2012-12-29,62,47,32,32,29,19,87,59,19,30.14,30.05,29.95,20,12,7,17,4,,0.00,1,,133
2012-12-30,55,48,41,39,34,25,87,67,33,29.99,29.93,29.85,20,11,7,10,3,,0.10,4,Rain,119
2012-12-31,53,45,37,39,36,32,87,77,47,30.23,30.11,29.99,20,12,10,8,5,,0.00,2,,128